createdAt,value
2018-07-01T00:00:02.474Z,21.20
2018-07-01T00:02:31.146Z,21.10
2018-07-01T00:04:59.839Z,21.10
2018-07-01T00:07:28.600Z,21.00
2018-07-01T00:09:57.421Z,21.00
2018-07-01T00:12:26.154Z,21.00
2018-07-01T00:17:23.366Z,20.90
2018-07-01T00:22:20.448Z,20.90
2018-07-01T00:24:49.179Z,20.80
2018-07-01T00:27:17.950Z,20.70
2018-07-01T00:32:15.040Z,20.80
2018-07-01T00:34:43.777Z,20.70
2018-07-01T00:37:12.547Z,20.70
2018-07-01T00:39:42.287Z,20.70
2018-07-01T00:42:11.002Z,20.70
2018-07-01T00:44:39.785Z,20.70
2018-07-01T00:47:08.587Z,20.70
2018-07-01T00:49:37.363Z,20.50
2018-07-01T00:52:06.078Z,20.40
2018-07-01T00:54:34.819Z,20.50
2018-07-01T00:57:03.629Z,20.40
2018-07-01T00:59:32.327Z,20.40
2018-07-01T01:02:01.093Z,20.20
2018-07-01T01:04:29.844Z,20.10
2018-07-01T01:06:58.532Z,20.00
2018-07-01T01:09:27.231Z,20.00
2018-07-01T01:11:55.969Z,19.90
2018-07-01T01:14:24.632Z,19.80
2018-07-01T01:16:53.373Z,19.90
2018-07-01T01:19:22.139Z,19.80
2018-07-01T01:21:50.914Z,19.90
2018-07-01T01:24:19.662Z,19.70
2018-07-01T01:31:45.110Z,19.70
2018-07-01T01:34:13.984Z,19.70
2018-07-01T01:36:43.627Z,19.60
2018-07-01T01:39:15.682Z,19.50
2018-07-01T01:49:49.175Z,19.50
2018-07-01T01:52:39.142Z,19.50
2018-07-01T01:55:42.796Z,19.40
2018-07-01T01:58:24.143Z,19.30
2018-07-01T02:01:12.175Z,19.30
2018-07-01T02:03:47.291Z,19.20
2018-07-01T02:06:19.123Z,19.20
2018-07-01T02:08:57.105Z,19.20
2018-07-01T02:11:26.672Z,19.20
2018-07-01T02:16:34.912Z,19.20
2018-07-01T02:19:03.715Z,19.10
2018-07-01T02:24:04.514Z,19.00
2018-07-01T02:29:02.686Z,18.90
2018-07-01T02:31:31.511Z,18.90
2018-07-01T02:34:00.192Z,18.90
2018-07-01T02:36:28.900Z,18.90
2018-07-01T02:41:26.006Z,18.90
2018-07-01T02:43:54.692Z,18.80
2018-07-01T02:51:20.276Z,18.90
2018-07-01T02:58:45.657Z,18.90
2018-07-01T03:01:14.399Z,18.90
2018-07-01T03:03:43.155Z,18.70
2018-07-01T03:08:40.240Z,18.80
2018-07-01T03:13:37.343Z,19.00
2018-07-01T03:18:34.393Z,19.10
2018-07-01T03:21:03.164Z,19.10
2018-07-01T03:23:31.943Z,19.00
2018-07-01T03:28:28.989Z,19.00
2018-07-01T03:30:57.802Z,19.00
2018-07-01T03:33:26.517Z,19.00
2018-07-01T03:35:55.215Z,19.00
2018-07-01T03:38:23.931Z,19.00
2018-07-01T03:40:52.717Z,18.90
2018-07-01T03:43:21.499Z,18.90
2018-07-01T03:48:18.615Z,18.90
2018-07-01T03:53:15.694Z,18.90
2018-07-01T03:58:12.809Z,18.80
2018-07-01T04:00:41.575Z,18.80
2018-07-01T04:03:10.369Z,18.70
2018-07-01T04:05:39.153Z,18.60
2018-07-01T04:08:07.906Z,18.60
2018-07-01T04:10:36.578Z,18.50
2018-07-01T04:13:05.321Z,18.40
2018-07-01T04:15:34.028Z,18.40
2018-07-01T04:18:02.728Z,18.30
2018-07-01T04:20:31.486Z,18.40
2018-07-01T04:25:28.624Z,18.60
2018-07-01T04:27:57.380Z,18.50
2018-07-01T04:30:26.075Z,18.40
2018-07-01T04:32:54.871Z,18.40
2018-07-01T04:35:23.661Z,18.40
2018-07-01T04:42:49.085Z,18.40
2018-07-01T04:47:46.304Z,18.40
2018-07-01T04:50:14.948Z,18.20
2018-07-01T04:52:43.732Z,18.20
2018-07-01T04:55:12.583Z,18.30
2018-07-01T05:00:09.662Z,18.40
2018-07-01T05:05:06.802Z,18.40
2018-07-01T05:10:04.040Z,18.50
2018-07-01T05:12:32.726Z,18.60
2018-07-01T05:15:01.491Z,18.60
2018-07-01T05:17:30.203Z,18.70
2018-07-01T05:19:58.874Z,18.40
2018-07-01T05:24:56.015Z,18.60
2018-07-01T05:27:25.519Z,18.80
2018-07-01T05:29:54.230Z,18.80
2018-07-01T05:32:22.976Z,18.90
2018-07-01T05:34:51.571Z,18.80
2018-07-01T05:37:20.266Z,18.70
2018-07-01T05:39:48.970Z,18.90
2018-07-01T05:42:17.739Z,19.10
2018-07-01T05:47:14.811Z,18.80
2018-07-01T05:49:43.695Z,18.80
2018-07-01T05:52:12.483Z,18.90
2018-07-01T05:54:41.277Z,19.00
2018-07-01T05:57:10.175Z,19.00
2018-07-01T05:59:38.968Z,18.90
2018-07-01T06:02:07.753Z,18.90
2018-07-01T06:04:36.447Z,18.80
2018-07-01T06:07:05.237Z,18.80
2018-07-01T06:09:34.005Z,19.00
2018-07-01T06:12:02.730Z,19.20
2018-07-01T06:14:31.498Z,19.40
2018-07-01T06:17:00.332Z,19.50
2018-07-01T06:19:29.029Z,19.40
2018-07-01T06:21:57.754Z,19.40
2018-07-01T06:24:29.927Z,19.40
2018-07-01T06:26:58.564Z,19.40
2018-07-01T06:31:55.644Z,19.50
2018-07-01T06:34:24.371Z,19.60
2018-07-01T06:36:59.344Z,19.80
2018-07-01T06:39:28.003Z,19.60
2018-07-01T06:41:57.310Z,19.90
2018-07-01T06:44:26.016Z,19.90
2018-07-01T06:46:54.695Z,20.10
2018-07-01T06:49:23.451Z,20.30
2018-07-01T06:51:52.173Z,20.20
2018-07-01T06:54:20.871Z,20.10
2018-07-01T06:56:49.509Z,20.10
2018-07-01T06:59:18.123Z,20.30
2018-07-01T07:01:47.019Z,20.50
2018-07-01T07:06:43.900Z,20.70
2018-07-01T07:09:13.390Z,20.50
2018-07-01T07:14:10.823Z,20.30
2018-07-01T07:16:39.520Z,20.70
2018-07-01T07:19:08.352Z,20.70
2018-07-01T07:21:37.012Z,20.60
2018-07-01T07:24:05.768Z,20.70
2018-07-01T07:26:34.435Z,20.70
2018-07-01T07:29:03.229Z,20.50
2018-07-01T07:31:32.247Z,20.60
2018-07-01T07:34:00.878Z,20.60
2018-07-01T07:36:29.519Z,20.70
2018-07-01T07:41:26.451Z,21.10
2018-07-01T07:43:55.141Z,21.40
2018-07-01T07:46:23.866Z,21.30
2018-07-01T07:48:52.499Z,21.50
2018-07-01T07:51:21.184Z,21.60
2018-07-01T07:53:49.899Z,21.60
2018-07-01T07:56:18.567Z,21.80
2018-07-01T07:58:47.710Z,21.90
2018-07-01T08:01:16.509Z,22.00
2018-07-01T08:03:45.096Z,22.00
2018-07-01T08:06:13.895Z,22.10
2018-07-01T08:08:42.526Z,22.20
2018-07-01T08:13:39.484Z,22.20
2018-07-01T08:16:08.224Z,22.30
2018-07-01T08:18:36.938Z,22.40
2018-07-01T08:21:05.739Z,22.60
2018-07-01T08:26:02.975Z,22.50
2018-07-01T08:28:31.611Z,22.60
2018-07-01T08:33:28.511Z,22.70
2018-07-01T08:35:57.171Z,22.80
2018-07-01T08:38:25.790Z,22.80
2018-07-01T08:40:54.537Z,22.80
2018-07-01T08:45:51.502Z,23.20
2018-07-01T08:48:20.139Z,23.20
2018-07-01T08:50:48.763Z,23.30
2018-07-01T08:53:17.651Z,23.40
2018-07-01T08:55:46.343Z,23.60
2018-07-01T08:58:15.080Z,23.60
2018-07-01T09:03:11.972Z,23.80
2018-07-01T09:10:37.186Z,24.00
2018-07-01T09:13:06.023Z,24.10
2018-07-01T09:15:35.240Z,24.20
2018-07-01T09:18:04.206Z,24.20
2018-07-01T09:20:33.004Z,24.20
2018-07-01T09:23:02.923Z,24.10
2018-07-01T09:32:57.080Z,24.60
2018-07-01T09:35:25.743Z,24.60
2018-07-01T09:37:54.425Z,24.70
2018-07-01T09:40:23.156Z,24.70
2018-07-01T09:42:51.856Z,24.70
2018-07-01T09:50:17.539Z,24.60
2018-07-01T09:52:46.204Z,24.60
2018-07-01T09:57:43.239Z,24.80
2018-07-01T10:00:11.919Z,25.00
2018-07-01T10:02:41.161Z,25.20
2018-07-01T10:07:38.832Z,25.60
2018-07-01T10:10:08.104Z,25.30
2018-07-01T10:12:36.973Z,25.20
2018-07-01T10:17:34.975Z,25.30
2018-07-01T10:22:32.161Z,25.60
2018-07-01T10:25:01.234Z,25.70
2018-07-01T10:27:29.888Z,25.60
2018-07-01T10:29:58.516Z,25.80
2018-07-01T10:37:24.208Z,26.20
2018-07-01T10:47:18.457Z,26.00
2018-07-01T10:49:47.550Z,26.10
2018-07-01T10:52:16.254Z,26.20
2018-07-01T10:54:45.584Z,26.20
2018-07-01T10:57:14.286Z,26.20
2018-07-01T10:59:43.452Z,26.20
2018-07-01T11:07:10.258Z,26.30
2018-07-01T11:09:39.322Z,26.30
2018-07-01T11:12:08.841Z,26.50
2018-07-01T11:17:06.386Z,27.00
2018-07-01T11:22:04.105Z,27.20
2018-07-01T11:27:07.923Z,27.40
2018-07-01T11:32:12.491Z,27.70
2018-07-01T11:37:09.821Z,27.90
2018-07-01T11:39:38.455Z,28.00
2018-07-01T11:42:07.137Z,28.40
2018-07-01T11:47:04.100Z,28.90
2018-07-01T11:49:32.756Z,29.30
2018-07-01T11:52:01.492Z,29.30
2018-07-01T11:56:58.515Z,29.50
2018-07-01T11:59:27.175Z,29.90
2018-07-01T12:01:55.889Z,29.90
2018-07-01T12:04:25.286Z,29.90
2018-07-01T12:06:54.255Z,29.90
2018-07-01T12:09:23.016Z,29.70
2018-07-01T12:16:48.438Z,30.00
2018-07-01T12:19:17.230Z,30.20
2018-07-01T12:24:14.316Z,30.40
2018-07-01T12:26:42.971Z,30.30
2018-07-01T12:29:11.704Z,30.40
2018-07-01T12:31:40.435Z,30.70
2018-07-01T12:36:37.629Z,31.10
2018-07-01T12:39:10.089Z,31.10
2018-07-01T12:41:38.795Z,31.30
2018-07-01T12:44:07.535Z,31.50
2018-07-01T12:46:36.211Z,31.70
2018-07-01T12:49:04.995Z,31.80
2018-07-01T12:54:02.037Z,31.90
2018-07-01T12:56:30.732Z,31.70
2018-07-01T13:03:56.089Z,32.40
2018-07-01T13:06:24.792Z,32.70
2018-07-01T13:08:53.529Z,32.80
2018-07-01T13:11:22.186Z,32.50
2018-07-01T13:13:50.986Z,32.40
2018-07-01T13:16:19.727Z,32.40
2018-07-01T13:18:48.378Z,32.60
2018-07-01T13:21:17.016Z,33.00
2018-07-01T13:23:45.724Z,33.10
2018-07-01T13:26:14.535Z,33.00
2018-07-01T13:28:43.295Z,33.20
2018-07-01T13:33:40.209Z,33.60
2018-07-01T13:36:08.918Z,33.60
2018-07-01T13:38:37.592Z,33.80
2018-07-01T13:41:06.774Z,33.90
2018-07-01T13:43:35.464Z,33.80
2018-07-01T13:46:04.185Z,34.20
2018-07-01T13:48:33.243Z,34.60
2018-07-01T13:53:30.268Z,35.00
2018-07-01T13:55:59.128Z,35.00
2018-07-01T14:00:56.251Z,34.90
2018-07-01T14:03:24.893Z,35.10
2018-07-01T14:05:54.313Z,35.10
2018-07-01T14:08:23.065Z,34.80
2018-07-01T14:10:51.899Z,34.80
2018-07-01T14:13:20.565Z,35.00
2018-07-01T14:15:49.230Z,34.90
2018-07-01T14:18:17.943Z,34.70
2018-07-01T14:20:46.695Z,34.70
2018-07-01T14:23:15.355Z,34.60
2018-07-01T14:28:12.368Z,34.60
2018-07-01T14:30:41.078Z,34.30
2018-07-01T14:33:09.724Z,34.30
2018-07-01T14:35:38.492Z,34.30
2018-07-01T14:38:07.113Z,34.60
2018-07-01T14:40:35.772Z,34.60
2018-07-01T14:43:05.550Z,34.90
2018-07-01T14:45:34.377Z,34.90
2018-07-01T14:48:03.077Z,35.20
2018-07-01T14:50:31.996Z,35.40
2018-07-01T14:53:00.811Z,35.50
2018-07-01T14:55:30.149Z,35.40
2018-07-01T14:57:58.905Z,35.10
2018-07-01T15:02:56.465Z,35.00
2018-07-01T15:05:25.263Z,35.00
2018-07-01T15:07:53.993Z,34.70
2018-07-01T15:18:59.517Z,35.50
2018-07-01T15:24:28.363Z,35.30
2018-07-01T15:37:42.558Z,35.60
2018-07-01T15:49:15.953Z,35.50
2018-07-01T15:54:28.176Z,35.10
2018-07-01T15:59:30.181Z,35.00
2018-07-01T16:07:05.132Z,35.20
2018-07-01T16:09:33.903Z,35.20
2018-07-01T16:14:37.110Z,35.50
2018-07-01T16:17:14.970Z,35.40
2018-07-01T16:19:47.379Z,35.60
2018-07-01T16:22:26.707Z,35.30
2018-07-01T16:25:06.042Z,34.70
2018-07-01T16:27:36.064Z,34.80
2018-07-01T16:30:10.078Z,35.10
2018-07-01T16:32:53.470Z,34.70
2018-07-01T16:35:32.874Z,34.60
2018-07-01T16:38:14.026Z,34.50
2018-07-01T16:43:15.637Z,34.70
2018-07-01T16:45:52.660Z,34.50
2018-07-01T16:48:25.750Z,34.40
2018-07-01T16:53:47.189Z,34.40
2018-07-01T17:06:10.743Z,34.50
2018-07-01T17:13:37.708Z,34.50
2018-07-01T17:16:06.666Z,34.00
2018-07-01T17:26:01.880Z,34.00
2018-07-01T17:38:31.362Z,34.00
2018-07-01T17:41:00.573Z,34.10
2018-07-01T17:43:29.715Z,33.80
2018-07-01T17:58:28.381Z,32.40
2018-07-01T18:05:56.667Z,32.50
2018-07-01T18:10:54.177Z,31.40
2018-07-01T18:42:49.551Z,30.60
2018-07-01T18:50:43.428Z,29.40
2018-07-01T18:55:41.208Z,29.10
2018-07-01T18:58:10.469Z,29.00
2018-07-01T19:05:47.541Z,28.20
2018-07-01T19:13:24.921Z,27.40
2018-07-01T19:15:54.644Z,27.30
2018-07-01T19:18:28.746Z,27.10
2018-07-01T19:27:10.065Z,26.40
2018-07-01T19:45:48.179Z,25.30
2018-07-01T19:48:59.960Z,25.10
2018-07-01T19:51:30.068Z,24.90
2018-07-01T19:56:39.311Z,24.60
2018-07-01T19:59:09.682Z,24.40
2018-07-01T20:01:38.393Z,24.10
2018-07-01T20:04:07.709Z,23.90
